LGSK

Details ICAO LGSK (JSI)
Name Skiathos
Region Greece
Timezone Europe/Athens (UTC+3.0)
Plans Departing 1592
Arriving 2653
Stats Elevation 53 ft / 16 m (AMSL)
Location 39.177400° 23.503700°
Runways 1
Magnetic Variation 5.196° E
Sunrise 2024-06-14 03:00:32 UTC / 2024-06-14 06:00:32 Local
Sunset 2024-06-14 17:54:45 UTC / 2024-06-14 20:54:45 Local
Advertisement - Login to hide

Runways

ID Width Length Bearing (true/mag) Surface Threshold Overrun Markings Lighting
01 98 ft / 30 m 5,346 ft / 1,629 m 19.00° / 13.80° ASPHALT 187 ft / 57 m 0 ft / 0 m NONE EDGE THRESHOLD REIL-OMNI
19 98 ft / 30 m 5,346 ft / 1,629 m 199.00° / 193.81° ASPHALT 0 ft / 0 m 0 ft / 0 m NONE EDGE THRESHOLD REIL-OMNI

Map

Weather


0- 5 10 15 20 25 30 35+ Temperature / °C

Clouds and Precipitation
Forecast for 2024-04-15 18:00 UTC. Updated 2 months ago

Ground ~20,000 ft ~40,000 ft Winds

METAR

LGSK 141550Z 35007KT CAVOK 29/17 Q1009

TAF

Not found

Frequencies

Ground 122.10 MHz Ground
Tower 123.25 MHz Tower
Approach 126.05 MHz Skiathos Approach
Warning: Do not use this data for real-world aviation or navigation. No guarantee of current accuracy is given.